createdAt,value
2023-03-12T00:00:14.245Z,12.10
2023-03-12T00:02:42.231Z,12.13
2023-03-12T00:05:10.525Z,12.00
2023-03-12T00:07:38.814Z,12.03
2023-03-12T00:10:06.772Z,12.01
2023-03-12T00:12:36.953Z,12.08
2023-03-12T00:15:05.166Z,12.15
2023-03-12T00:17:32.792Z,12.07
2023-03-12T00:20:00.374Z,12.14
2023-03-12T00:22:28.143Z,12.14
2023-03-12T00:24:57.057Z,12.08
2023-03-12T00:27:25.032Z,12.10
2023-03-12T00:29:53.022Z,12.16
2023-03-12T00:32:20.910Z,12.05
2023-03-12T00:34:53.619Z,12.00
2023-03-12T00:37:21.412Z,12.06
2023-03-12T00:39:49.957Z,12.17
2023-03-12T00:42:17.964Z,12.27
2023-03-12T00:44:45.843Z,12.38
2023-03-12T00:47:13.459Z,12.35
2023-03-12T00:49:41.303Z,12.34
2023-03-12T00:52:08.942Z,12.41
2023-03-12T00:54:36.532Z,12.35
2023-03-12T00:57:04.284Z,12.44
2023-03-12T00:59:32.201Z,12.32
2023-03-12T01:01:59.747Z,12.32
2023-03-12T01:04:28.329Z,12.46
2023-03-12T01:06:56.826Z,12.49
2023-03-12T01:09:24.786Z,12.68
2023-03-12T01:11:52.421Z,12.68
2023-03-12T01:14:20.101Z,12.44
2023-03-12T01:16:49.842Z,12.57
2023-03-12T01:19:19.395Z,12.46
2023-03-12T01:21:47.052Z,12.39
2023-03-12T01:24:14.580Z,12.65
2023-03-12T01:26:42.090Z,12.78
2023-03-12T01:29:09.633Z,12.74
2023-03-12T01:31:37.312Z,12.70
2023-03-12T01:34:05.171Z,12.68
2023-03-12T01:36:32.771Z,12.55
2023-03-12T01:39:00.415Z,12.58
2023-03-12T01:41:28.986Z,12.37
2023-03-12T01:43:56.519Z,12.62
2023-03-12T01:46:31.138Z,12.46
2023-03-12T01:49:03.216Z,12.56
2023-03-12T01:51:56.638Z,12.62
2023-03-12T01:54:32.722Z,12.40
2023-03-12T01:57:00.538Z,12.46
2023-03-12T01:59:52.329Z,12.45
2023-03-12T02:02:23.789Z,12.35
2023-03-12T02:04:52.062Z,12.20
2023-03-12T02:07:19.815Z,12.39
2023-03-12T02:09:50.117Z,12.58
2023-03-12T02:12:18.174Z,12.41
2023-03-12T02:14:45.808Z,12.24
2023-03-12T02:17:14.501Z,12.40
2023-03-12T02:20:13.926Z,12.42
2023-03-12T02:22:42.616Z,12.49
2023-03-12T02:25:37.783Z,12.30
2023-03-12T02:28:10.214Z,12.55
2023-03-12T02:30:42.845Z,12.23
2023-03-12T02:33:24.535Z,12.15
2023-03-12T02:35:52.431Z,12.20
2023-03-12T02:38:40.232Z,12.34
2023-03-12T02:41:24.689Z,12.22
2023-03-12T02:44:19.611Z,12.23
2023-03-12T02:46:51.889Z,12.20
2023-03-12T02:49:20.942Z,12.41
2023-03-12T02:51:49.723Z,12.05
2023-03-12T02:54:18.245Z,12.18
2023-03-12T02:56:46.665Z,12.03
2023-03-12T02:59:14.963Z,11.93
2023-03-12T03:01:44.633Z,12.01
2023-03-12T03:04:12.586Z,12.02
2023-03-12T03:06:41.412Z,11.86
2023-03-12T03:09:10.891Z,11.89
2023-03-12T03:11:38.969Z,11.81
2023-03-12T03:14:07.869Z,12.01
2023-03-12T03:16:36.212Z,11.86
2023-03-12T03:19:06.325Z,11.74
2023-03-12T03:21:33.888Z,11.61
2023-03-12T03:24:03.279Z,11.57
2023-03-12T03:26:31.144Z,11.75
2023-03-12T03:29:03.826Z,11.61
2023-03-12T03:31:33.433Z,11.53
2023-03-12T03:34:01.574Z,11.65
2023-03-12T03:36:29.573Z,11.63
2023-03-12T03:39:12.036Z,11.56
2023-03-12T03:41:40.437Z,11.47
2023-03-12T03:44:08.768Z,11.63
2023-03-12T03:46:38.762Z,11.58
2023-03-12T03:49:10.058Z,11.76
2023-03-12T03:51:42.802Z,11.65
2023-03-12T03:54:13.522Z,11.79
2023-03-12T03:56:42.817Z,11.59
2023-03-12T03:59:13.502Z,11.63
2023-03-12T04:01:43.758Z,11.74
2023-03-12T04:04:11.686Z,11.66
2023-03-12T04:06:39.411Z,11.71
2023-03-12T04:09:07.109Z,11.72
2023-03-12T04:11:37.299Z,11.86
2023-03-12T04:14:06.801Z,11.76
2023-03-12T04:16:38.022Z,11.48
2023-03-12T04:19:06.569Z,11.56
2023-03-12T04:21:34.225Z,11.49
2023-03-12T04:24:01.813Z,11.50
2023-03-12T04:26:33.591Z,11.59
2023-03-12T04:29:05.840Z,11.68
2023-03-12T04:31:34.450Z,11.62
2023-03-12T04:34:02.146Z,11.85
2023-03-12T04:36:30.197Z,11.90
2023-03-12T04:38:58.334Z,11.72
2023-03-12T04:41:37.009Z,11.74
2023-03-12T04:44:12.651Z,11.86
2023-03-12T04:46:41.350Z,11.84
2023-03-12T04:49:09.992Z,11.98
2023-03-12T04:51:39.384Z,11.96
2023-03-12T04:54:10.327Z,12.00
2023-03-12T04:56:39.921Z,12.04
2023-03-12T04:59:10.526Z,11.84
2023-03-12T05:01:39.883Z,11.63
2023-03-12T05:04:14.089Z,11.34
2023-03-12T05:06:41.742Z,11.06
2023-03-12T05:09:09.342Z,10.98
2023-03-12T05:11:39.846Z,10.77
2023-03-12T05:14:13.809Z,10.66
2023-03-12T05:16:43.305Z,10.69
2023-03-12T05:19:12.271Z,10.59
2023-03-12T05:21:41.239Z,10.74
2023-03-12T05:24:10.328Z,10.65
2023-03-12T05:26:38.369Z,10.77
2023-03-12T05:29:11.698Z,10.64
2023-03-12T05:31:39.836Z,10.97
2023-03-12T05:34:10.376Z,11.03
2023-03-12T05:36:39.956Z,10.84
2023-03-12T05:39:08.422Z,10.72
2023-03-12T05:41:36.523Z,10.96
2023-03-12T05:44:13.644Z,11.13
2023-03-12T05:46:43.532Z,10.76
2023-03-12T05:49:12.405Z,10.75
2023-03-12T05:51:40.115Z,10.83
2023-03-12T05:54:08.884Z,10.95
2023-03-12T05:56:37.062Z,10.92
2023-03-12T05:59:05.317Z,10.97
2023-03-12T06:01:33.269Z,10.95
2023-03-12T06:04:02.888Z,11.20
2023-03-12T06:06:35.129Z,10.70
2023-03-12T06:09:04.097Z,10.43
2023-03-12T06:11:32.761Z,10.49
2023-03-12T06:14:00.424Z,10.12
2023-03-12T06:16:28.527Z,10.26
2023-03-12T06:18:57.967Z,10.25
2023-03-12T06:21:27.331Z,10.26
2023-03-12T06:23:55.211Z,10.11
2023-03-12T06:26:28.046Z,10.11
2023-03-12T06:28:57.924Z,9.97
2023-03-12T06:31:25.656Z,9.78
2023-03-12T06:33:54.087Z,9.67
2023-03-12T06:36:23.442Z,9.76
2023-03-12T06:38:51.008Z,9.83
2023-03-12T06:41:20.502Z,10.06
2023-03-12T06:43:48.601Z,10.10
2023-03-12T06:46:19.303Z,10.24
2023-03-12T06:48:49.059Z,10.32
2023-03-12T06:51:16.987Z,10.13
2023-03-12T06:53:45.192Z,10.05
2023-03-12T06:56:12.946Z,10.20
2023-03-12T06:58:41.102Z,10.40
2023-03-12T07:01:08.671Z,10.33
2023-03-12T07:03:36.700Z,10.44
2023-03-12T07:06:04.735Z,10.37
2023-03-12T07:08:33.400Z,10.25
2023-03-12T07:11:01.966Z,10.15
2023-03-12T07:13:30.383Z,10.09
2023-03-12T07:16:01.014Z,10.28
2023-03-12T07:18:28.594Z,10.23
2023-03-12T07:20:56.738Z,10.10
2023-03-12T07:23:24.850Z,10.49
2023-03-12T07:25:52.559Z,10.48
2023-03-12T07:28:20.880Z,10.28
2023-03-12T07:30:52.761Z,10.32
2023-03-12T07:33:21.298Z,10.32
2023-03-12T07:35:51.515Z,10.42
2023-03-12T07:38:20.096Z,10.07
2023-03-12T07:40:54.704Z,10.23
2023-03-12T07:43:23.917Z,10.20
2023-03-12T07:45:54.578Z,9.72
2023-03-12T07:48:22.609Z,9.63
2023-03-12T07:50:50.940Z,9.59
2023-03-12T07:53:18.582Z,9.65
2023-03-12T07:55:46.837Z,9.57
2023-03-12T07:58:16.415Z,9.42
2023-03-12T08:00:46.879Z,9.49
2023-03-12T08:03:14.899Z,9.67
2023-03-12T08:05:42.759Z,9.42
2023-03-12T08:08:11.166Z,9.70
2023-03-12T08:10:39.044Z,9.85
2023-03-12T08:13:08.190Z,9.25
2023-03-12T08:15:36.261Z,9.85
2023-03-12T08:18:06.577Z,10.00
2023-03-12T08:20:35.362Z,9.68
2023-03-12T08:23:03.022Z,10.03
2023-03-12T08:25:30.646Z,10.03
2023-03-12T08:27:58.359Z,9.57
2023-03-12T08:30:29.104Z,8.90
2023-03-12T08:32:58.160Z,9.12
2023-03-12T08:35:25.850Z,9.79
2023-03-12T08:37:53.497Z,10.18
2023-03-12T08:40:35.457Z,10.16
2023-03-12T08:43:03.592Z,10.10
2023-03-12T08:45:31.262Z,10.04
2023-03-12T08:47:59.039Z,10.37
2023-03-12T08:50:29.492Z,10.14
2023-03-12T08:52:57.268Z,10.38
2023-03-12T08:55:26.378Z,10.14
2023-03-12T08:57:55.272Z,9.94
2023-03-12T09:00:23.060Z,9.27
2023-03-12T09:02:54.401Z,9.79
2023-03-12T09:05:22.334Z,9.94
2023-03-12T09:07:50.892Z,9.58
2023-03-12T09:10:19.841Z,9.62
2023-03-12T09:12:47.546Z,9.12
2023-03-12T09:15:19.095Z,8.95
2023-03-12T09:17:48.180Z,9.37
2023-03-12T09:20:15.872Z,9.13
2023-03-12T09:22:43.501Z,9.17
2023-03-12T09:25:11.424Z,8.64
2023-03-12T09:27:43.831Z,8.98
2023-03-12T09:30:16.922Z,8.91
2023-03-12T09:32:47.273Z,8.77
2023-03-12T09:35:19.503Z,8.27
2023-03-12T09:38:09.222Z,8.27
2023-03-12T09:40:55.756Z,8.42
2023-03-12T09:43:48.014Z,8.12
2023-03-12T09:46:45.616Z,8.11
2023-03-12T09:49:43.545Z,8.33
2023-03-12T09:52:24.727Z,8.14
2023-03-12T09:55:18.092Z,8.40
2023-03-12T09:57:51.472Z,8.46
2023-03-12T10:00:20.856Z,8.59
2023-03-12T10:03:03.721Z,7.88
2023-03-12T10:05:38.455Z,7.91
2023-03-12T10:08:24.215Z,8.26
2023-03-12T10:11:03.016Z,8.86
2023-03-12T10:14:08.580Z,8.65
2023-03-12T10:17:04.832Z,8.20
2023-03-12T10:19:35.020Z,7.76
2023-03-12T10:22:14.384Z,7.96
2023-03-12T10:24:51.616Z,7.66
2023-03-12T10:27:19.250Z,7.58
2023-03-12T10:29:48.676Z,7.91
2023-03-12T10:32:38.746Z,7.99
2023-03-12T10:35:26.265Z,7.93
2023-03-12T10:37:56.448Z,7.60
2023-03-12T10:40:25.981Z,7.94
2023-03-12T10:42:58.917Z,7.51
2023-03-12T10:45:39.066Z,7.57
2023-03-12T10:48:08.958Z,7.43
2023-03-12T10:50:38.137Z,7.63
2023-03-12T10:53:30.033Z,6.89
2023-03-12T10:55:59.122Z,7.52
2023-03-12T10:58:26.879Z,7.53
2023-03-12T11:00:57.044Z,7.71
2023-03-12T11:03:29.533Z,7.51
2023-03-12T11:06:02.344Z,7.43
2023-03-12T11:08:35.331Z,7.31
2023-03-12T11:11:03.704Z,7.04
2023-03-12T11:13:38.137Z,6.48
2023-03-12T11:16:17.975Z,6.83
2023-03-12T11:19:03.873Z,6.63
2023-03-12T11:21:33.635Z,6.62
2023-03-12T11:24:12.055Z,6.59
2023-03-12T11:26:45.037Z,6.79
2023-03-12T11:29:33.394Z,6.85
2023-03-12T11:32:24.624Z,6.82
2023-03-12T11:34:53.253Z,6.66
2023-03-12T11:37:43.035Z,6.62
2023-03-12T11:40:32.173Z,6.60
2023-03-12T11:43:32.410Z,6.88
2023-03-12T11:46:34.877Z,6.84
2023-03-12T11:49:14.780Z,6.45
2023-03-12T11:51:51.623Z,6.22
2023-03-12T11:55:05.486Z,6.22
2023-03-12T11:57:35.567Z,6.06
2023-03-12T12:00:41.122Z,5.55
2023-03-12T12:03:37.194Z,5.43
2023-03-12T12:06:18.694Z,5.29
2023-03-12T12:08:57.881Z,5.29
2023-03-12T12:11:41.482Z,5.14
2023-03-12T12:14:26.225Z,5.13
2023-03-12T12:17:12.953Z,5.08
2023-03-12T12:19:55.375Z,5.12
2023-03-12T12:22:37.741Z,5.25
2023-03-12T12:25:41.346Z,5.16
2023-03-12T12:28:24.285Z,5.18
2023-03-12T12:30:55.194Z,5.11
2023-03-12T12:34:01.590Z,5.25
2023-03-12T12:36:31.758Z,5.16
2023-03-12T12:39:01.708Z,5.12
2023-03-12T12:41:32.397Z,5.32
2023-03-12T12:44:03.137Z,5.36
2023-03-12T12:46:43.175Z,5.40
2023-03-12T12:49:13.365Z,5.61
2023-03-12T12:51:48.240Z,5.59
2023-03-12T12:54:18.845Z,5.68
2023-03-12T12:56:58.893Z,5.51
2023-03-12T12:59:31.746Z,5.59
2023-03-12T13:02:00.391Z,5.35
2023-03-12T13:04:36.388Z,5.30
2023-03-12T13:07:13.088Z,5.41
2023-03-12T13:09:43.832Z,5.41
2023-03-12T13:12:25.976Z,5.58
2023-03-12T13:14:54.193Z,5.40
2023-03-12T13:17:21.982Z,5.45
2023-03-12T13:20:18.137Z,5.47
2023-03-12T13:23:12.562Z,5.47
2023-03-12T13:25:40.125Z,5.50
2023-03-12T13:28:34.998Z,5.39
2023-03-12T13:31:26.887Z,5.48
2023-03-12T13:34:09.169Z,5.21
2023-03-12T13:36:42.109Z,5.12
2023-03-12T13:39:15.926Z,5.17
2023-03-12T13:41:52.389Z,5.18
2023-03-12T13:44:23.267Z,4.95
2023-03-12T13:47:32.421Z,5.21
2023-03-12T13:50:00.634Z,5.05
2023-03-12T13:52:34.381Z,5.07
2023-03-12T13:55:16.567Z,5.09
2023-03-12T13:57:46.752Z,5.25
2023-03-12T14:00:30.148Z,5.26
2023-03-12T14:03:19.997Z,5.09
2023-03-12T14:05:52.045Z,5.24
2023-03-12T14:08:51.556Z,5.18
2023-03-12T14:11:31.322Z,5.14
2023-03-12T14:14:04.897Z,5.11
2023-03-12T14:16:51.952Z,5.28
2023-03-12T14:19:33.662Z,4.88
2023-03-12T14:22:04.265Z,4.94
2023-03-12T14:24:37.821Z,5.06
2023-03-12T14:27:14.572Z,4.75
2023-03-12T14:29:47.061Z,4.87
2023-03-12T14:32:29.096Z,5.06
2023-03-12T14:35:22.173Z,4.69
2023-03-12T14:37:49.629Z,4.69
2023-03-12T14:40:46.949Z,4.86
2023-03-12T14:43:28.340Z,4.77
2023-03-12T14:45:57.281Z,4.78
2023-03-12T14:48:28.949Z,4.86
2023-03-12T14:50:57.577Z,4.93
2023-03-12T14:53:27.921Z,4.77
2023-03-12T14:56:12.385Z,4.75
2023-03-12T14:58:44.843Z,4.82
2023-03-12T15:01:30.279Z,4.77
2023-03-12T15:04:02.367Z,4.87
2023-03-12T15:06:32.164Z,4.74
2023-03-12T15:09:02.366Z,4.79
2023-03-12T15:11:31.298Z,4.69
2023-03-12T15:14:07.607Z,4.80
2023-03-12T15:16:37.577Z,4.83
2023-03-12T15:19:06.207Z,4.85
2023-03-12T15:21:35.009Z,4.73
2023-03-12T15:24:04.345Z,4.59
2023-03-12T15:26:36.552Z,4.76
2023-03-12T15:29:27.902Z,4.70
2023-03-12T15:31:59.961Z,4.85
2023-03-12T15:34:35.658Z,4.59
2023-03-12T15:37:20.104Z,4.57
2023-03-12T15:39:53.934Z,4.48
2023-03-12T15:42:23.704Z,4.62
2023-03-12T15:44:58.849Z,4.38
2023-03-12T15:47:30.760Z,4.36
2023-03-12T15:50:01.140Z,4.30
2023-03-12T15:52:31.192Z,4.38
2023-03-12T15:55:21.435Z,4.46
2023-03-12T15:57:49.548Z,4.37
2023-03-12T16:00:41.736Z,4.13
2023-03-12T16:03:16.655Z,4.34
2023-03-12T16:05:44.690Z,4.25
2023-03-12T16:08:20.946Z,4.12
2023-03-12T16:10:49.701Z,4.24
2023-03-12T16:13:20.029Z,4.30
2023-03-12T16:15:52.744Z,4.27
2023-03-12T16:18:21.826Z,4.18
2023-03-12T16:20:50.849Z,4.14
2023-03-12T16:23:21.692Z,4.08
2023-03-12T16:25:53.517Z,4.04
2023-03-12T16:28:21.217Z,3.89
2023-03-12T16:30:49.801Z,3.90
2023-03-12T16:33:19.789Z,3.94
2023-03-12T16:35:47.872Z,3.84
2023-03-12T16:38:15.950Z,3.94
2023-03-12T16:40:47.187Z,3.89
2023-03-12T16:43:20.102Z,3.84
2023-03-12T16:45:47.923Z,3.85
2023-03-12T16:48:17.506Z,3.72
2023-03-12T16:50:53.265Z,3.60
2023-03-12T16:53:22.043Z,3.76
2023-03-12T16:55:55.718Z,3.71
2023-03-12T16:58:24.523Z,3.52
2023-03-12T17:00:53.144Z,3.66
2023-03-12T17:03:36.477Z,3.54
2023-03-12T17:06:06.527Z,3.38
2023-03-12T17:08:36.170Z,3.37
2023-03-12T17:11:14.716Z,3.25
2023-03-12T17:13:42.263Z,3.48
2023-03-12T17:16:12.496Z,3.33
2023-03-12T17:18:40.841Z,3.32
2023-03-12T17:21:11.647Z,3.33
2023-03-12T17:23:39.318Z,3.36
2023-03-12T17:26:06.998Z,3.25
2023-03-12T17:28:34.748Z,3.39
2023-03-12T17:31:02.471Z,3.05
2023-03-12T17:33:30.446Z,3.02
2023-03-12T17:36:02.652Z,3.20
2023-03-12T17:38:31.675Z,2.93
2023-03-12T17:40:59.755Z,3.03
2023-03-12T17:43:28.019Z,3.06
2023-03-12T17:45:55.731Z,2.92
2023-03-12T17:48:24.900Z,2.89
2023-03-12T17:50:52.426Z,2.99
2023-03-12T17:53:19.931Z,2.98
2023-03-12T17:55:48.254Z,2.97
2023-03-12T17:58:16.800Z,3.03
2023-03-12T18:00:46.612Z,3.05
2023-03-12T18:03:14.421Z,2.95
2023-03-12T18:05:43.224Z,2.94
2023-03-12T18:08:11.270Z,2.98
2023-03-12T18:10:40.678Z,2.91
2023-03-12T18:13:08.731Z,2.93
2023-03-12T18:15:37.330Z,2.94
2023-03-12T18:18:13.919Z,2.93
2023-03-12T18:20:43.341Z,2.94
2023-03-12T18:23:11.465Z,2.82
2023-03-12T18:25:39.096Z,2.90
2023-03-12T18:28:06.824Z,2.82
2023-03-12T18:30:34.482Z,2.75
2023-03-12T18:33:03.208Z,3.02
2023-03-12T18:35:31.237Z,3.12
2023-03-12T18:37:59.178Z,2.91
2023-03-12T18:40:29.227Z,2.86
2023-03-12T18:43:00.246Z,2.81
2023-03-12T18:45:28.019Z,2.89
2023-03-12T18:47:56.424Z,2.88
2023-03-12T18:50:25.125Z,2.69
2023-03-12T18:52:52.799Z,2.71
2023-03-12T18:55:20.434Z,2.88
2023-03-12T18:57:48.150Z,2.91
2023-03-12T19:00:20.119Z,2.89
2023-03-12T19:02:48.912Z,2.89
2023-03-12T19:05:16.625Z,3.01
2023-03-12T19:07:44.370Z,2.98
2023-03-12T19:10:12.361Z,3.07
2023-03-12T19:12:51.424Z,3.27
2023-03-12T19:15:24.115Z,3.33
2023-03-12T19:17:54.327Z,3.36
2023-03-12T19:20:22.120Z,3.33
2023-03-12T19:22:50.073Z,3.28
2023-03-12T19:25:20.115Z,3.33
2023-03-12T19:27:50.491Z,3.31
2023-03-12T19:30:18.397Z,3.43
2023-03-12T19:32:46.120Z,3.35
2023-03-12T19:35:14.542Z,3.54
2023-03-12T19:37:42.684Z,3.59
2023-03-12T19:40:11.151Z,3.44
2023-03-12T19:42:39.423Z,3.56
2023-03-12T19:45:07.379Z,3.52
2023-03-12T19:47:35.944Z,3.38
2023-03-12T19:50:04.462Z,3.41
2023-03-12T19:52:33.115Z,3.40
2023-03-12T19:55:05.016Z,3.37
2023-03-12T19:57:35.450Z,3.22
2023-03-12T20:00:07.188Z,3.13
2023-03-12T20:02:36.583Z,3.08
2023-03-12T20:05:07.033Z,3.06
2023-03-12T20:07:35.272Z,2.92
2023-03-12T20:10:05.827Z,2.87
2023-03-12T20:12:33.540Z,2.90
2023-03-12T20:15:01.212Z,2.96
2023-03-12T20:17:29.468Z,2.88
2023-03-12T20:19:58.275Z,2.80
2023-03-12T20:22:26.370Z,2.81
2023-03-12T20:24:55.786Z,2.85
2023-03-12T20:27:23.352Z,2.90
2023-03-12T20:29:50.989Z,2.89
2023-03-12T20:32:21.363Z,2.88
2023-03-12T20:34:49.047Z,2.85
2023-03-12T20:37:18.141Z,2.95
2023-03-12T20:39:46.402Z,2.94
2023-03-12T20:42:13.965Z,3.03
2023-03-12T20:44:41.880Z,3.04
2023-03-12T20:47:09.410Z,3.07
2023-03-12T20:49:37.123Z,3.02
2023-03-12T20:52:05.062Z,3.13
2023-03-12T20:54:33.033Z,3.15
2023-03-12T20:57:00.580Z,3.09
2023-03-12T20:59:28.074Z,3.15
2023-03-12T21:01:55.700Z,3.11
2023-03-12T21:04:23.320Z,3.15
2023-03-12T21:06:51.855Z,3.15
2023-03-12T21:09:21.698Z,3.10
2023-03-12T21:11:50.274Z,3.16
2023-03-12T21:14:17.905Z,3.11
2023-03-12T21:16:46.466Z,2.93
2023-03-12T21:19:15.070Z,3.18
2023-03-12T21:21:43.343Z,3.03
2023-03-12T21:24:11.308Z,3.09
2023-03-12T21:26:46.700Z,3.15
2023-03-12T21:29:14.295Z,3.17
2023-03-12T21:31:41.956Z,3.23
2023-03-12T21:34:09.846Z,3.18
2023-03-12T21:36:37.570Z,3.18
2023-03-12T21:39:05.856Z,3.23
2023-03-12T21:41:33.422Z,2.99
2023-03-12T21:44:02.849Z,3.04
2023-03-12T21:46:30.809Z,2.97
2023-03-12T21:48:58.897Z,2.98
2023-03-12T21:51:26.518Z,3.01
2023-03-12T21:53:58.101Z,2.92
2023-03-12T21:56:29.434Z,3.16
2023-03-12T21:58:57.461Z,3.13
2023-03-12T22:01:25.266Z,3.17
2023-03-12T22:03:54.200Z,3.10
2023-03-12T22:06:21.883Z,3.10
2023-03-12T22:08:52.416Z,3.10
2023-03-12T22:11:20.925Z,2.93
2023-03-12T22:13:48.691Z,2.95
2023-03-12T22:16:16.378Z,3.01
2023-03-12T22:18:45.236Z,3.01
2023-03-12T22:21:20.073Z,2.79
2023-03-12T22:23:51.138Z,2.96
2023-03-12T22:26:19.854Z,2.95
2023-03-12T22:28:52.538Z,2.84
2023-03-12T22:31:20.797Z,2.84
2023-03-12T22:33:48.696Z,2.78
2023-03-12T22:36:16.489Z,2.88
2023-03-12T22:38:44.382Z,2.82
2023-03-12T22:41:20.688Z,2.92
2023-03-12T22:43:49.316Z,2.92
2023-03-12T22:46:20.321Z,3.06
2023-03-12T22:48:52.596Z,3.16
2023-03-12T22:51:20.168Z,3.39
2023-03-12T22:53:48.421Z,3.23
2023-03-12T22:56:16.002Z,3.08
2023-03-12T22:58:43.677Z,3.32
2023-03-12T23:01:12.763Z,3.13
2023-03-12T23:03:41.268Z,3.33
2023-03-12T23:06:17.069Z,3.15
2023-03-12T23:08:47.105Z,3.19
2023-03-12T23:11:25.540Z,2.96
2023-03-12T23:13:54.484Z,2.97
2023-03-12T23:16:24.039Z,2.99
2023-03-12T23:18:55.323Z,2.97
2023-03-12T23:21:23.706Z,3.08
2023-03-12T23:23:51.505Z,2.93
2023-03-12T23:26:26.958Z,2.93
2023-03-12T23:28:55.404Z,3.00
2023-03-12T23:31:24.050Z,2.81
2023-03-12T23:33:51.943Z,2.89
2023-03-12T23:36:30.999Z,2.94
2023-03-12T23:38:58.568Z,2.81
2023-03-12T23:41:29.436Z,2.80
2023-03-12T23:43:59.472Z,2.80
2023-03-12T23:46:27.605Z,2.75
2023-03-12T23:49:00.205Z,2.82
2023-03-12T23:51:32.433Z,2.86
2023-03-12T23:54:02.309Z,2.72
2023-03-12T23:56:35.144Z,2.84
2023-03-12T23:59:03.319Z,2.82
